sensor_id;sensor_type;location;lat;lon;timestamp;P1;durP1;ratioP1;P2;durP2;ratioP2
75112;SDS011;63692;47.338;8.520;2024-03-02T18:03:06;4.95;;;2.42;;
75112;SDS011;63692;47.338;8.520;2024-03-02T18:10:28;5.43;;;2.47;;
75112;SDS011;63692;47.338;8.520;2024-03-02T18:13:22;7.13;;;2.70;;
75112;SDS011;63692;47.338;8.520;2024-03-02T18:15:47;8.50;;;3.17;;
75112;SDS011;63692;47.338;8.520;2024-03-02T18:18:14;6.85;;;2.70;;
75112;SDS011;63692;47.338;8.520;2024-03-02T18:20:39;5.28;;;2.45;;
75112;SDS011;63692;47.338;8.520;2024-03-02T18:23:05;5.32;;;2.35;;
75112;SDS011;63692;47.338;8.520;2024-03-02T18:25:31;5.25;;;2.40;;
75112;SDS011;63692;47.338;8.520;2024-03-02T18:27:57;10.23;;;3.00;;
75112;SDS011;63692;47.338;8.520;2024-03-02T18:33:08;4.57;;;2.42;;
75112;SDS011;63692;47.338;8.520;2024-03-02T18:38:34;4.53;;;2.40;;
75112;SDS011;63692;47.338;8.520;2024-03-02T18:41:00;4.78;;;2.42;;
75112;SDS011;63692;47.338;8.520;2024-03-02T18:51:08;6.20;;;3.63;;
75112;SDS011;63692;47.338;8.520;2024-03-02T18:53:34;8.52;;;3.30;;
75112;SDS011;63692;47.338;8.520;2024-03-02T18:56:01;6.05;;;3.00;;
75112;SDS011;63692;47.338;8.520;2024-03-02T18:58:29;6.70;;;3.35;;
75112;SDS011;63692;47.338;8.520;2024-03-02T19:00:55;6.18;;;3.97;;
75112;SDS011;63692;47.338;8.520;2024-03-02T19:03:21;9.18;;;4.53;;
75112;SDS011;63692;47.338;8.520;2024-03-02T19:05:46;7.65;;;4.30;;
75112;SDS011;63692;47.338;8.520;2024-03-02T19:08:12;6.88;;;3.65;;
75112;SDS011;63692;47.338;8.520;2024-03-02T19:10:42;8.55;;;3.78;;
75112;SDS011;63692;47.338;8.520;2024-03-02T19:13:08;10.40;;;6.70;;
75112;SDS011;63692;47.338;8.520;2024-03-02T19:15:34;11.27;;;6.55;;
75112;SDS011;63692;47.338;8.520;2024-03-02T19:18:02;7.95;;;4.70;;
75112;SDS011;63692;47.338;8.520;2024-03-02T19:20:28;6.28;;;3.78;;
75112;SDS011;63692;47.338;8.520;2024-03-02T19:22:53;8.88;;;3.95;;
75112;SDS011;63692;47.338;8.520;2024-03-02T19:25:19;8.07;;;4.30;;
75112;SDS011;63692;47.338;8.520;2024-03-02T19:32:48;7.82;;;4.53;;
75112;SDS011;63692;47.338;8.520;2024-03-02T19:37:41;7.85;;;4.68;;
75112;SDS011;63692;47.338;8.520;2024-03-02T19:40:07;6.50;;;4.20;;
75112;SDS011;63692;47.338;8.520;2024-03-02T19:42:34;8.80;;;5.18;;
75112;SDS011;63692;47.338;8.520;2024-03-02T19:45:03;14.63;;;7.65;;
75112;SDS011;63692;47.338;8.520;2024-03-02T19:49:59;15.10;;;6.93;;
75112;SDS011;63692;47.338;8.520;2024-03-02T19:52:25;12.57;;;6.90;;
75112;SDS011;63692;47.338;8.520;2024-03-02T19:54:51;10.70;;;5.60;;
75112;SDS011;63692;47.338;8.520;2024-03-02T19:57:16;8.93;;;4.95;;
75112;SDS011;63692;47.338;8.520;2024-03-02T19:59:42;10.45;;;4.93;;
75112;SDS011;63692;47.338;8.520;2024-03-02T20:02:08;10.18;;;5.18;;
75112;SDS011;63692;47.338;8.520;2024-03-02T20:04:36;9.40;;;5.10;;
75112;SDS011;63692;47.338;8.520;2024-03-02T20:07:03;7.97;;;4.60;;
75112;SDS011;63692;47.338;8.520;2024-03-02T20:09:29;7.32;;;4.82;;
75112;SDS011;63692;47.338;8.520;2024-03-02T21:48:23;12.70;;;5.22;;
75112;SDS011;63692;47.338;8.520;2024-03-02T21:50:48;11.23;;;5.40;;
75112;SDS011;63692;47.338;8.520;2024-03-02T21:53:14;9.57;;;6.13;;
75112;SDS011;63692;47.338;8.520;2024-03-02T21:55:40;9.60;;;5.38;;
